Daybreak2
, South Jordan
Last Weather Update:12/30/2011 11:00:00 PM
Date
ETo
ETc
Rain
Irrigation
Req
Temp
Max
Temp
Min
Temp
Avg
Avg RH
Avg Wind
Avg Solar
inches
inches
incehs
inches
F
F
F
%
%
watts/m2
11/01/2011 0.03" 0.00" 0.15" -0.15" 50.5° 31.4° 39.1° 75.2% 9.7 MPH 48.4w/m2
11/02/2011 0.07" 0.00" 0.00" 0.00" 44.1° 26.6° 34.7° 57.1% 5.2 MPH 158.4w/m2
11/03/2011 0.11" 0.00" 0.00" 0.00" 53.6° 30.1° 42.5° 38.3% 8.4 MPH 150.0w/m2
11/04/2011 0.13" 0.00" 0.02" -0.02" 60.2° 31.7° 47.4° 39.4% 10.2 MPH 122.9w/m2
11/05/2011 0.04" 0.00" 0.04" -0.04" 35.2° 27.9° 31.1° 81.1% 3.4 MPH 117.1w/m2
11/06/2011 0.05" 0.00" 0.00" 0.00" 42.3° 27.4° 34.6° 64.4% 6.2 MPH 129.6w/m2
11/07/2011 0.04" 0.00" 0.01" -0.01" 39.7° 30.5° 34.5° 76.8% 7.2 MPH 126.4w/m2
11/08/2011 0.05" 0.00" 0.00" 0.00" 40.2° 24.9° 31.1° 66.4% 4.7 MPH 131.3w/m2
11/09/2011 0.05" 0.00" 0.00" 0.00" 45.8° 23.6° 32.8° 62.0% 4.2 MPH 113.4w/m2
11/10/2011 0.07" 0.00" 0.00" 0.00" 50.6° 29.6° 36.9° 54.2% 5.9 MPH 140.2w/m2
11/11/2011 0.09" 0.00" 0.00" 0.00" 49.1° 30.1° 41.7° 35.5% 8.4 MPH 115.4w/m2
11/12/2011 0.06" 0.00" 0.00" 0.00" 48.7° 31.2° 40.1° 66.3% 11.2 MPH 24.3w/m2
11/13/2011 0.05" 0.00" 0.06" -0.06" 50.0° 35.9° 40.8° 71.5% 5.7 MPH 88.2w/m2
11/14/2011 0.09" 0.00" 0.00" 0.00" 55.1° 37.1° 44.6° 39.6% 6.9 MPH 138.0w/m2
11/15/2011 0.06" 0.00" 0.00" 0.00" 44.4° 33.8° 39.9° 44.8% 5.5 MPH 72.4w/m2
11/16/2011 0.07" 0.00" 0.00" 0.00" 44.8° 29.0° 36.9° 42.1% 4.8 MPH 130.5w/m2
11/17/2011 0.10" 0.00" 0.00" 0.00" 53.2° 33.7° 43.6° 34.5% 9.7 MPH 103.8w/m2
11/18/2011 0.07" 0.00" 0.00" 0.00" 53.5° 31.0° 40.9° 59.7% 9.4 MPH 49.6w/m2
11/19/2011 0.04" 0.00" 0.16" -0.16" 38.1° 26.6° 30.6° 79.6% 2.2 MPH 97.3w/m2
11/20/2011 0.03" 0.00" 0.01" -0.01" 43.6° 25.8° 34.2° 78.8% 5.4 MPH 64.0w/m2
11/21/2011 0.03" 0.00" 0.25" -0.25" 45.6° 34.4° 38.8° 86.2% 4.8 MPH 71.1w/m2
11/22/2011 0.06" 0.00" 0.00" 0.00" 50.3° 35.8° 42.3° 67.2% 8.2 MPH 108.5w/m2
11/23/2011 0.10" 0.00" 0.00" 0.00" 56.9° 37.5° 47.6° 43.7% 10.3 MPH 107.3w/m2
11/24/2011 0.09" 0.00" 0.00" 0.00" 56.3° 41.6° 47.8° 41.1% 10.5 MPH 68.4w/m2
11/25/2011 0.06" 0.00" 0.00" 0.00" 50.1° 29.3° 40.3° 50.8% 7.6 MPH 68.9w/m2
11/26/2011 0.06" 0.00" 0.00" 0.00" 42.4° 24.9° 32.5° 44.9% 4.2 MPH 122.1w/m2
11/27/2011 0.06" 0.00" 0.00" 0.00" 48.3° 27.2° 35.6° 48.4% 5.3 MPH 119.2w/m2
11/28/2011 0.04" 0.00" 0.00" 0.00" 48.0° 29.9° 36.6° 62.3% 4.1 MPH 79.1w/m2
11/29/2011 0.06" 0.00" 0.00" 0.00" 50.6° 29.1° 38.4° 59.0% 5.0 MPH 111.4w/m2
11/30/2011 0.04" 0.00" 0.00" 0.00" 42.8° 30.6° 36.7° 69.1% 9.3 MPH 82.2w/m2
Totals: 1.92" 0.00" 0.70" -0.70" 60.2° 23.6° 38.5° 58.0% 6.8 MPH 102.0w/m2